Flight Track Log - Related Links

Times and Time Zones

All times are in EDT time to prevent confusion due to time zone crossing. See the AAL1115 flight status page for this flight to view local times or setup timezone preferences in your user account.


Time Position Orientation Groundspeed Altitude Reporting Facility
EDT Latitude Longitude Course Direction KTS MPH feet Rate Location/Type
Mon 06:31:44 PM 32.8833 -97.0333 214° Southwest 168 193 1,200  Level Dallas / Fort Worth TRACON
Mon 06:32:50 PM 32.8333 -97.0333 180° South 215 247 2,900 2,091 Climbing Dallas / Fort Worth TRACON
Mon 06:33:56 PM 32.7667 -97.0333 180° South 252 290 5,800 2,632 Climbing Dallas / Fort Worth TRACON
Mon 06:34:00 PM 32.5548 -96.9968 209° Southwest  Level FlightAware Approximate
Mon 06:34:44 PM 32.7000 -97.0500 192° South 266 306 7,900  Level Dallas / Fort Worth TRACON
Mon 06:35:00 PM 32.4538 -97.0623 208° Southwest  Level FlightAware Approximate
Mon 06:35:16 PM 32.6689 -97.0678 206° Southwest 265 305 9,300  Level Fort Worth Center
Mon 06:36:00 PM 32.3528 -97.1278 214° Southwest  Level FlightAware Approximate
Mon 06:36:18 PM 32.5894 -97.0928 195° South 293 337 10,900  Level Fort Worth Center
Mon 06:37:21 PM 32.4914 -97.1233 195° South 356 410 12,700 2,112 Climbing Fort Worth Center
Mon 06:38:23 PM 32.3822 -97.1578 195° South 376 433 15,300 2,468 Climbing Fort Worth Center
Mon 06:39:25 PM 32.2797 -97.1883 194° South 384 442 17,800 2,226 Climbing Fort Worth Center
Mon 06:40:27 PM 32.1625 -97.2039 186° South 395 455 19,900 1,935 Climbing Fort Worth Center
Mon 06:41:29 PM 32.0489 -97.2186 186° South 409 471 21,800 1,742 Climbing Fort Worth Center
Mon 06:42:31 PM 31.9344 -97.2322 186° South 414 476 23,500 1,548 Climbing Fort Worth Center
Mon 06:43:33 PM 31.8156 -97.2478 186° South 425 489 25,000 1,597 Climbing Fort Worth Center
Mon 06:44:35 PM 31.6950 -97.2644 187° South 433 498 26,800 1,452 Climbing Fort Worth Center
Mon 06:45:37 PM 31.5806 -97.3058 197° South 433 498 28,000 1,248 Climbing Fort Worth Center
Mon 06:46:40 PM 31.4444 -97.3733 203° Southwest 440 506 29,400 960 Climbing Fort Worth Center
Mon 06:47:42 PM 31.3233 -97.4017 191° South 446 513 30,000 290 Climbing Fort Worth Center
Mon 06:48:44 PM 31.1978 -97.4125 184° South 452 520 30,000  Level Fort Worth Center
Mon 06:49:46 PM 31.0731 -97.4186 182° South 453 521 30,000  Level Fort Worth Center
Mon 06:50:48 PM 30.9217 -97.4189 180° South 459 528 30,000  Level Fort Worth Center
Mon 06:51:32 PM 30.8461 -97.4183 180° South 461 531 30,000  Level Houston Center
Mon 06:52:34 PM 30.6956 -97.4183 180° South 459 528 30,000  Level Houston Center
Mon 06:53:36 PM 30.5694 -97.4192 180° South 458 527 30,000  Level Houston Center
Mon 06:54:38 PM 30.4433 -97.4208 181° South 457 526 30,000  Level Houston Center
Mon 06:55:40 PM 30.3169 -97.4253 182° South 458 527 30,000  Level Houston Center
Mon 06:56:42 PM 30.1881 -97.4219 179° South 458 527 30,000  Level Houston Center
Mon 06:57:44 PM 30.0519 -97.4242 181° South 458 527 30,000  Level Houston Center
Mon 06:58:46 PM 29.9231 -97.4253 180° South 460 529 30,000  Level Houston Center
Mon 06:59:48 PM 29.7928 -97.4275 181° South 465 535 30,000  Level Houston Center
Mon 07:00:50 PM 29.6372 -97.4297 181° South 466 536 30,000  Level Houston Center
Mon 07:01:52 PM 29.5081 -97.4308 180° South 467 537 30,000  Level Houston Center
Mon 07:02:55 PM 29.3792 -97.4314 180° South 467 537 30,000  Level Houston Center
Mon 07:03:57 PM 29.2492 -97.4331 181° South 467 537 30,000  Level Houston Center
Mon 07:04:59 PM 29.0942 -97.4331 180° South 468 539 30,000  Level Houston Center
Mon 07:06:01 PM 28.9650 -97.4339 180° South 468 539 30,000  Level Houston Center
Mon 07:07:03 PM 28.8350 -97.4364 181° South 468 539 30,000  Level Houston Center
Mon 07:08:05 PM 28.7061 -97.4367 180° South 467 537 30,000  Level Houston Center
Mon 07:09:07 PM 28.5758 -97.4367 180° South 467 537 30,000  Level Houston Center
Mon 07:10:09 PM 28.4214 -97.4389 181° South 461 531 30,000  Level Houston Center
Mon 07:11:11 PM 28.2886 -97.4397 180° South 462 532 30,000  Level Houston Center
Mon 07:12:13 PM 28.1569 -97.4408 180° South 463 533 30,000  Level Houston Center
Mon 07:13:15 PM 28.0258 -97.4425 181° South 462 532 30,000 -194 Level Houston Center
Mon 07:14:17 PM 27.8964 -97.4464 182° South 461 531 29,600 -1,887 Descending Houston Center
Mon 07:15:19 PM 27.7667 -97.4786 192° South 464 534 26,100 -3,000 Descending Houston Center
Mon 07:16:21 PM 27.6372 -97.5128 193° South 466 536 23,400 -2,226 Descending Houston Center
Mon 07:17:23 PM 27.5186 -97.5433 193° South 429 494 21,500 -2,032 Descending Houston Center
Mon 07:18:25 PM 27.4047 -97.5731 193° South 413 475 19,200 -2,129 Descending Houston Center
Mon 07:19:27 PM 27.2861 -97.6031 193° South 391 450 17,100 -1,500 Descending Houston Center
Mon 07:20:29 PM 27.1825 -97.6306 193° South 378 435 16,100 -537 Descending Houston Center
Mon 07:21:30 PM 27.0772 -97.6586 193° South 371 427 16,000 -49 Descending Houston Center
Mon 07:22:31 PM 26.9808 -97.6833 193° South 374 430 16,000 -524 Level Houston Center
Mon 07:23:36 PM 26.8728 -97.7100 192° South 374 430 14,900 -984 Descending Houston Center
Mon 07:24:33 PM 26.7822 -97.7333 193° South 326 375 14,000 -1,113 Descending Houston Center
Mon 07:25:40 PM 26.6967 -97.7833 208° Southwest 300 345 12,600 -1,349 Descending Houston Center
Mon 07:26:42 PM 26.6383 -97.8461 224° Southwest 293 337 11,100 -1,500 Descending Houston Center
Mon 07:27:44 PM 26.5803 -97.9194 228° Southwest 293 337 9,500 -1,440 Descending Houston Center
Mon 07:28:47 PM 26.5269 -97.9825 227° Southwest 282 325 8,100 -1,355 Descending Houston Center
Mon 07:29:48 PM 26.4778 -98.0439 228° Southwest 271 312 6,700 -1,488 Descending Houston Center
Mon 07:30:48 PM 26.4222 -98.1061 225° Southwest 261 300 5,100 -1,357 Descending Houston Center
Mon 07:31:43 PM 26.3833 -98.1556 229° Southwest 251 289 4,100 -1,269 Descending Houston Center
Mon 07:32:32 PM 26.3494 -98.1928 225° Southwest 213 245 2,900 -1,457 Descending Houston Center
Mon 07:32:53 PM 26.3361 -98.2114 231° Southwest 215 247 2,400 -800 Descending Houston Center
Mon 07:33:32 PM 26.3139 -98.2369 226° Southwest 188 216 2,100 -290 Descending Houston Center
Mon 07:33:55 PM 26.3014 -98.2536 230° Southwest 193 222 2,100 -98 Level Houston Center
Mon 07:34:33 PM 26.2783 -98.2789 225° Southwest 185 213 2,000 -97 Descending Houston Center
Mon 07:34:57 PM 26.2614 -98.2936 218° Southwest 186 214 2,000 -98 Level Houston Center
Mon 07:35:34 PM 26.2381 -98.2956 184° South 154 177 1,900 -581 Descending Houston Center
Mon 07:35:59 PM 26.2256 -98.2869 148° Southeast 140 161 1,400 -828 Descending Houston Center
Mon 07:37:01 PM 26.2014 -98.2636 139° Southeast 119 137 700 -677 Descending Houston Center

Login

Don't have an account? Register now (free) for customized features, flight alerts, and more!